ZPPP/KMG METAR and TAF weather

Enter ICAO airport designator
Station Type Date Time Source
ZPPP METAR 2021/09/24 06:00 UTC NOAA

ZPPP 240600Z 19004MPS 140V230 9999 FEW026TCU SCT026 BKN040 22/13 Q1024 NOSIG


Station Type Date Time Source
ZPPP Decoded METAR 2021/09/24 06:00 UTC NOAA

Kunming, China (ZPPP) 25-01N 102-41E 1892M
Sep 24, 2021 - 02:00 AM EDT / 2021.09.24 0600 UTC
Wind: from the S (190 degrees) at 9 MPH (8 KT) (direction variable):0
Visibility: greater than 7 mile(s):0
Sky conditions: mostly cloudy
Weather: Towering cumulus clouds observed
Temperature: 71 F (22 C)
Dew Point: 55 F (13 C)
Relative Humidity: 56%
Pressure (altimeter): 30.24 in. Hg (1024 hPa)
ob: ZPPP 240600Z 19004MPS 140V230 9999 FEW026TCU SCT026 BKN040 22/13 Q1024 NOSIG
cycle: 6

Station Type Date Time Source
ZPPP TAF 2021/09/24 06:03 UTC NOAA

TAF ZPPP 240307Z 2406/2506 18004MPS 9999 SCT026 TX25/2408Z TN14/2423Z

Example: see airport list